createdAt,value
2022-12-15T07:43:49.241Z,1231.00
2022-12-15T07:43:59.151Z,1168.00
2022-12-15T07:44:09.153Z,1165.00
2022-12-15T07:44:19.135Z,1165.00
2022-12-15T07:44:29.152Z,1162.00
2022-12-15T07:44:39.141Z,1162.00
2022-12-15T07:44:49.948Z,1158.00
2022-12-15T07:44:59.171Z,1152.00
2022-12-15T07:45:09.147Z,1170.00
2022-12-15T07:45:19.272Z,1173.00
2022-12-15T07:45:29.346Z,1167.00
2022-12-15T07:45:39.165Z,1168.00
2022-12-15T07:45:51.575Z,1174.00
2022-12-15T07:45:59.256Z,1179.00
2022-12-15T07:46:09.192Z,1185.00
2022-12-15T07:46:19.454Z,1187.00
2022-12-15T07:46:29.393Z,1192.00
2022-12-15T07:46:39.341Z,1191.00
2022-12-15T07:46:49.504Z,1188.00
2022-12-15T07:46:59.340Z,1180.00
2022-12-15T07:47:09.305Z,1176.00
2022-12-15T07:47:19.413Z,1174.00
2022-12-15T07:47:29.327Z,1175.00
2022-12-15T07:47:39.366Z,1184.00
2022-12-15T07:47:49.353Z,1185.00
2022-12-15T07:47:59.324Z,1184.00
2022-12-15T07:48:09.303Z,1188.00
2022-12-15T07:48:19.357Z,1187.00
2022-12-15T07:48:29.338Z,1188.00
2022-12-15T07:48:39.311Z,1189.00
2022-12-15T07:48:50.246Z,1190.00
2022-12-15T07:48:59.323Z,1189.00
2022-12-15T07:49:09.375Z,1190.00
2022-12-15T07:49:19.348Z,1192.00
2022-12-15T07:49:29.345Z,1191.00
2022-12-15T07:49:39.357Z,1188.00
2022-12-15T07:49:49.349Z,1188.00
2022-12-15T07:49:59.321Z,1189.00
2022-12-15T07:50:09.313Z,1182.00
2022-12-15T07:50:19.356Z,1162.00
2022-12-15T07:50:29.330Z,1132.00
2022-12-15T07:50:39.351Z,1125.00
2022-12-15T07:50:50.393Z,1123.00
2022-12-15T07:51:07.439Z,1117.00
2022-12-15T07:51:17.380Z,1103.00
2022-12-15T07:51:20.616Z,1047.00
2022-12-15T07:51:29.369Z,1022.00
2022-12-15T07:51:39.336Z,1018.00
2022-12-15T07:51:49.357Z,1014.00
2022-12-15T07:51:59.290Z,1015.00
2022-12-15T07:52:09.355Z,1006.00
2022-12-15T07:52:19.311Z,993.00
2022-12-15T07:52:29.320Z,976.00
2022-12-15T07:52:39.331Z,969.00
2022-12-15T07:52:49.331Z,978.00
2022-12-15T07:52:59.355Z,989.00
2022-12-15T07:53:09.327Z,1005.00
2022-12-15T07:53:19.322Z,1145.00
2022-12-15T07:53:29.657Z,1174.00
2022-12-15T07:53:39.325Z,1195.00
2022-12-15T07:53:49.322Z,1201.00
2022-12-15T07:53:59.318Z,1213.00
2022-12-15T07:54:09.348Z,1233.00
2022-12-15T07:54:19.341Z,1262.00
2022-12-15T07:54:29.316Z,1276.00
2022-12-15T07:54:39.308Z,1274.00
2022-12-15T07:54:49.360Z,1264.00
2022-12-15T07:54:59.320Z,1258.00
2022-12-15T07:55:09.378Z,1255.00
2022-12-15T07:55:27.775Z,1253.00
2022-12-15T07:55:57.309Z,1251.00
2022-12-15T07:56:05.521Z,1248.00
2022-12-15T07:56:06.801Z,1251.00
2022-12-15T07:56:07.588Z,1252.00
2022-12-15T07:56:10.584Z,1252.00
2022-12-15T07:56:19.370Z,1252.00
2022-12-15T07:56:30.586Z,1254.00
2022-12-15T07:56:39.626Z,1257.00
2022-12-15T07:56:50.489Z,1268.00
2022-12-15T07:56:59.395Z,1278.00
2022-12-15T07:57:09.345Z,1285.00
2022-12-15T07:57:19.287Z,1286.00
2022-12-15T07:57:29.314Z,1289.00
2022-12-15T07:57:39.300Z,1285.00
2022-12-15T07:57:49.285Z,1287.00
2022-12-15T07:57:59.288Z,1289.00
2022-12-15T07:58:09.322Z,1291.00
2022-12-15T07:58:19.347Z,1292.00
2022-12-15T07:58:29.312Z,1293.00
2022-12-15T07:58:39.286Z,1296.00
2022-12-15T07:58:49.332Z,1301.00
2022-12-15T07:58:59.377Z,1317.00
2022-12-15T07:59:09.295Z,1354.00
2022-12-15T07:59:19.276Z,1361.00
2022-12-15T07:59:29.305Z,1360.00
2022-12-15T07:59:39.300Z,1358.00
2022-12-15T07:59:49.375Z,1352.00
2022-12-15T07:59:59.279Z,1350.00
2022-12-15T08:00:09.302Z,1349.00
2022-12-15T08:00:19.301Z,1352.00
2022-12-15T08:00:29.275Z,1356.00
2022-12-15T08:00:42.736Z,1359.00
2022-12-15T08:00:50.322Z,1362.00
2022-12-15T08:00:59.371Z,1367.00
2022-12-15T08:01:09.410Z,1372.00
2022-12-15T08:01:19.431Z,1372.00
2022-12-15T08:01:29.392Z,1375.00
2022-12-15T08:01:39.459Z,1377.00
2022-12-15T08:01:49.727Z,1379.00
2022-12-15T08:01:59.477Z,1380.00
2022-12-15T08:02:09.522Z,1382.00
2022-12-15T08:02:19.438Z,1386.00
2022-12-15T08:02:29.461Z,1390.00
2022-12-15T08:02:39.556Z,1395.00
2022-12-15T08:02:50.108Z,1399.00
2022-12-15T08:02:59.458Z,1422.00
2022-12-15T08:03:09.599Z,1432.00
2022-12-15T08:03:19.536Z,1439.00
2022-12-15T08:03:29.933Z,1447.00
2022-12-15T08:03:39.979Z,1444.00
2022-12-15T08:03:49.544Z,1446.00
2022-12-15T08:03:59.513Z,1446.00
2022-12-15T08:04:09.483Z,1447.00
2022-12-15T08:04:19.441Z,1450.00
2022-12-15T08:04:29.456Z,1458.00
2022-12-15T08:04:39.511Z,1506.00
2022-12-15T08:04:49.444Z,1518.00
2022-12-15T08:04:59.449Z,1526.00
2022-12-15T08:05:09.465Z,1524.00
2022-12-15T08:05:19.493Z,1530.00
2022-12-15T08:05:29.480Z,1533.00
2022-12-15T08:05:39.479Z,1541.00
2022-12-15T08:05:49.508Z,1553.00
2022-12-15T08:06:04.007Z,1570.00
2022-12-15T08:06:10.507Z,1584.00
2022-12-15T08:06:19.419Z,1593.00
2022-12-15T08:06:29.482Z,1600.00
2022-12-15T08:06:39.452Z,1609.00
2022-12-15T08:06:49.481Z,1608.00
2022-12-15T08:06:59.411Z,1610.00
2022-12-15T08:07:09.474Z,1611.00
2022-12-15T08:07:19.495Z,1611.00
2022-12-15T08:07:29.451Z,1609.00
2022-12-15T08:07:39.431Z,1611.00
2022-12-15T08:07:49.484Z,1609.00
2022-12-15T08:07:59.506Z,1606.00
2022-12-15T08:08:15.153Z,1608.00
2022-12-15T08:08:20.478Z,1608.00
2022-12-15T08:08:29.750Z,1610.00
2022-12-15T08:08:39.696Z,1613.00
2022-12-15T08:08:50.380Z,1615.00
2022-12-15T08:08:59.672Z,1615.00
2022-12-15T08:09:09.817Z,1617.00
2022-12-15T08:09:19.943Z,1620.00
2022-12-15T08:09:29.807Z,1622.00
2022-12-15T08:09:39.831Z,1626.00
2022-12-15T08:09:49.833Z,1631.00
2022-12-15T08:09:59.805Z,1639.00
2022-12-15T08:10:09.829Z,1669.00
2022-12-15T08:10:19.822Z,1715.00
2022-12-15T08:10:29.778Z,1719.00
2022-12-15T08:10:39.835Z,1716.00
2022-12-15T08:10:49.771Z,1719.00
2022-12-15T08:10:59.821Z,1724.00
2022-12-15T08:11:09.815Z,1726.00
2022-12-15T08:11:19.858Z,1724.00
2022-12-15T08:11:29.801Z,1724.00
2022-12-15T08:11:39.796Z,1726.00
2022-12-15T08:11:49.795Z,1730.00
2022-12-15T08:11:59.787Z,1732.00
2022-12-15T08:12:09.793Z,1732.00
2022-12-15T08:12:19.782Z,1732.00
2022-12-15T08:12:29.827Z,1735.00
2022-12-15T08:12:39.784Z,1736.00
2022-12-15T08:12:49.846Z,1738.00
2022-12-15T08:12:59.783Z,1739.00
2022-12-15T08:13:09.810Z,1740.00
2022-12-15T08:13:52.437Z,1742.00
2022-12-15T08:14:01.333Z,1743.00
2022-12-15T08:14:03.185Z,1749.00
2022-12-15T08:14:10.365Z,1748.00
2022-12-15T08:14:16.683Z,1751.00
2022-12-15T08:14:21.242Z,1752.00
2022-12-15T08:14:29.802Z,1756.00
2022-12-15T08:14:39.817Z,1760.00
2022-12-15T08:14:50.069Z,1767.00
2022-12-15T08:14:59.818Z,1775.00
2022-12-15T08:15:09.822Z,1802.00
2022-12-15T08:15:19.869Z,1832.00
2022-12-15T08:15:29.800Z,1839.00
2022-12-15T08:15:39.777Z,1843.00
2022-12-15T08:15:49.790Z,1846.00
2022-12-15T08:15:59.897Z,1849.00
2022-12-15T08:16:09.840Z,1850.00
2022-12-15T08:16:19.854Z,1848.00
2022-12-15T08:16:29.821Z,1850.00
2022-12-15T08:16:39.975Z,1848.00
2022-12-15T08:16:50.000Z,1849.00
2022-12-15T08:17:00.072Z,1850.00
2022-12-15T08:17:09.935Z,1851.00
2022-12-15T08:17:19.955Z,1853.00
2022-12-15T08:17:29.971Z,1854.00
2022-12-15T08:17:39.943Z,1855.00
2022-12-15T08:17:49.941Z,1857.00
2022-12-15T08:17:59.925Z,1857.00
2022-12-15T08:18:09.947Z,1860.00
2022-12-15T08:18:19.931Z,1862.00
2022-12-15T08:18:29.961Z,1865.00
2022-12-15T08:18:39.950Z,1869.00
2022-12-15T08:18:49.933Z,1877.00
2022-12-15T08:18:59.938Z,1887.00
2022-12-15T08:19:09.956Z,1897.00
2022-12-15T08:19:19.916Z,1904.00
2022-12-15T08:19:29.915Z,1907.00
2022-12-15T08:19:39.953Z,1913.00
2022-12-15T08:19:49.950Z,1915.00
2022-12-15T08:20:02.403Z,1917.00
2022-12-15T08:20:10.920Z,1915.00
2022-12-15T08:20:19.961Z,1919.00
2022-12-15T08:20:29.961Z,1921.00
2022-12-15T08:20:39.928Z,1926.00
2022-12-15T08:20:50.242Z,1931.00
2022-12-15T08:20:59.949Z,1934.00
2022-12-15T08:21:09.915Z,1937.00
2022-12-15T08:21:19.960Z,1940.00
2022-12-15T08:21:29.921Z,1947.00
2022-12-15T08:21:39.930Z,1949.00
2022-12-15T08:21:49.933Z,1950.00
2022-12-15T08:21:59.921Z,1954.00
2022-12-15T08:22:09.913Z,1955.00
2022-12-15T08:22:19.890Z,1959.00
2022-12-15T08:22:29.937Z,1962.00
2022-12-15T08:22:39.927Z,1964.00
2022-12-15T08:22:49.896Z,1969.00
2022-12-15T08:22:59.930Z,1971.00
2022-12-15T08:23:09.900Z,1973.00
2022-12-15T08:23:19.928Z,1975.00
2022-12-15T08:23:30.261Z,1981.00
2022-12-15T08:23:39.917Z,1992.00
2022-12-15T08:23:49.916Z,2033.00
2022-12-15T08:23:59.880Z,2043.00
2022-12-15T08:24:09.918Z,2038.00
2022-12-15T08:24:19.894Z,2028.00
2022-12-15T08:24:29.969Z,2984.00
2022-12-15T08:24:39.858Z,4708.00
2022-12-15T08:24:49.911Z,3918.00
2022-12-15T08:24:59.918Z,3365.00
2022-12-15T08:25:09.918Z,6846.00
2022-12-15T08:25:19.867Z,6461.00
2022-12-15T08:25:29.921Z,4844.00
2022-12-15T08:25:39.890Z,5765.00
2022-12-15T08:25:49.958Z,10074.00
2022-12-15T08:25:59.923Z,8791.00
2022-12-15T08:26:09.874Z,7300.00
2022-12-15T08:26:22.634Z,5526.00
2022-12-15T08:26:31.590Z,4637.00
2022-12-15T08:26:39.889Z,3790.00
2022-12-15T08:26:50.461Z,3069.00
2022-12-15T08:26:59.879Z,2651.00
2022-12-15T08:27:09.876Z,2429.00
2022-12-15T08:27:19.875Z,2331.00
2022-12-15T08:27:29.868Z,2289.00
2022-12-15T08:27:39.860Z,2256.00
2022-12-15T08:27:49.885Z,2236.00
2022-12-15T08:27:59.863Z,2224.00
2022-12-15T08:28:09.845Z,2217.00
2022-12-15T08:28:19.847Z,2194.00
2022-12-15T08:28:29.900Z,2184.00
2022-12-15T08:28:39.863Z,2178.00
2022-12-15T08:28:49.844Z,2192.00
2022-12-15T08:29:17.498Z,2192.00
2022-12-15T08:29:49.505Z,2193.00
2022-12-15T08:29:51.590Z,2191.00
2022-12-15T08:29:52.077Z,2184.00
2022-12-15T08:29:56.109Z,2185.00
2022-12-15T08:29:59.892Z,2176.00
2022-12-15T08:30:09.891Z,2171.00
2022-12-15T08:30:19.923Z,2190.00
2022-12-15T08:30:29.861Z,2256.00
2022-12-15T08:30:39.863Z,2279.00
2022-12-15T08:30:49.913Z,2271.00
2022-12-15T08:30:59.897Z,2278.00
2022-12-15T08:31:09.915Z,2275.00
2022-12-15T08:31:19.966Z,2266.00
2022-12-15T08:31:29.939Z,2251.00
2022-12-15T08:31:39.980Z,2250.00
2022-12-15T08:31:49.968Z,2244.00
2022-12-15T08:31:59.919Z,2239.00
2022-12-15T08:32:09.946Z,2241.00
2022-12-15T08:32:19.969Z,2248.00
2022-12-15T08:32:29.900Z,2255.00
2022-12-15T08:32:39.891Z,2356.00
2022-12-15T08:32:52.071Z,4356.00
2022-12-15T08:32:59.911Z,5904.00
2022-12-15T08:33:09.921Z,5856.00
2022-12-15T08:33:20.091Z,10331.00
2022-12-15T08:33:30.456Z,9331.00
2022-12-15T08:33:40.118Z,9445.00
2022-12-15T08:33:50.102Z,10158.00
2022-12-15T08:34:00.102Z,7336.00
2022-12-15T08:34:10.083Z,4555.00
2022-12-15T08:34:20.093Z,2527.00
